Logo AVAMET
Benvolgut visitant, si us plau, ingressa Recuperar contrasenya

Inforatge Xeraco centre

Dades diàries. Acumulats / Últims 30 dies disponibles

Data Temperatura (°C) Humitat rel. (%) Pressió rel. (hPa) Vent (km/h) Precipitació
Mínima Mitjana Màxima Amplitud
tèrmica
Mínima Mitjana Màxima Mínima Mitjana Màxima Predom. Mitjana Ràfega
màxima
Total
(mm)
Índex-n
Mínima Mitjana Màxima Mínima Mitjana Màxima n
0 a 1
P0 max
mm 5'
Dades mensuals acumulades fins l'últim dia disponible
08/2019 22,2 24,4 27,3 27,7 27,1 31,6 37,1 14,9 24 72 90 1.009 1.015 1.021   5,7 35,4 2,6
Dades anuals acumulades fins l'últim dia disponible
2019 4,2 15,1 27,3 18,8 11,6 22,7 39,2 35,0 15 66 97 995 1.018 1.037   6,6 80,6 265,6
Últims 30 dies disponibles
17-08-2019 23,8     27,6     33,0 9,2 57 76 85 1.012 1.015 1.018 SSE 4,7 31,5 0,0
16-08-2019 23,9     27,4     32,4 8,5 57 74 85 1.014 1.018 1.020 SSE 7,1 35,4 0,0
15-08-2019 23,9     27,7     32,7 8,8 51 73 86 1.015 1.018 1.020 SSE 5,5 29,6 0,0
14-08-2019 22,4     27,2     32,4 10,0 47 68 82 1.016 1.019 1.020 SSE 5,4 25,9 0,0
13-08-2019 22,2     25,2     27,1 4,9 62 74 87 1.018 1.019 1.021 SE 7,2 27,8 2,6
12-08-2019 24,7     26,7     27,9 3,2 56 75 87 1.013 1.016 1.019 SE 7,9 33,9 0,0
11-08-2019 26,6     28,7     32,8 6,2 66 79 88 1.011 1.014 1.016 SSE 5,7 24,1 0,0
10-08-2019 27,3     30,9     35,8 8,5 29 59 88 1.013 1.016 1.018 SE 7,6 27,8 0,0
09-08-2019 24,6     31,6     37,0 12,4 24 53 83 1.011 1.013 1.014 S 4,4 25,9 0,0
08-08-2019 24,3     30,5     37,1 12,8 25 58 89 1.010 1.013 1.014 S 6,7 31,5 0,0
07-08-2019 24,5     27,7     32,2 7,7 54 81 90 1.009 1.011 1.014 SSE 4,2 22,6 0,0
06-08-2019 26,8     28,5     34,8 8,0 52 75 88 1.009 1.014 1.016 E 4,7 27,8 0,0
05-08-2019 24,7     26,6     27,8 3,1 76 79 84 1.015 1.016 1.016 SSE 2,6 22,6 0,0
04-08-2019 23,9     27,2     30,6 6,7 62 73 80 1.012 1.014 1.016 SSE 5,6 22,6 0,0
03-08-2019 23,3     26,1     28,9 5,6 59 76 84 1.012 1.015 1.017 SSE 6,0 27,8 0,0
02-08-2019 23,1     25,7     28,1 5,0 58 74 83 1.014 1.016 1.017 SSE 5,7 24,1 0,0
01-08-2019 24,1     25,5     27,2 3,1 66 78 84 1.013 1.014 1.017 SSE 5,4 27,8 0,0
31-07-2019 24,7     25,8     27,9 3,2 68 82 88 1.015 1.017 1.019 ESE 6,4 27,8 0,0
30-07-2019 24,2     26,7     31,1 6,9 42 75 84 1.011 1.014 1.017 SSE 7,6 37,0 0,0
29-07-2019 23,4     28,3     34,2 10,8 40 64 79 1.008 1.011 1.012 SSE 5,5 27,8 0,0
28-07-2019 23,3     26,8     30,6 7,3 39 57 71 1.009 1.010 1.012 SSE 8,5 37,0 0,0
27-07-2019 23,7     29,8     35,4 11,7 20 43 83 1.003 1.006 1.010 SO 11,1 51,9 0,0
26-07-2019 24,3     27,2     30,6 6,3 50 70 83 1.008 1.011 1.014 SE 5,1 32,2 0,0
25-07-2019 24,3     28,3     32,8 8,5 40 59 73 1.012 1.015 1.016 SE 4,6 25,9 0,0
24-07-2019 23,9     27,8     31,2 7,3 46 59 73 1.015 1.017 1.018 SSE 4,4 24,1 0,0
23-07-2019 23,9     27,2     30,4 6,5 52 68 79 1.017 1.019 1.021 SSE 6,0 19,3 0,0
22-07-2019 24,5     26,7     29,2 4,7 60 76 86 1.021 1.022 1.023 SSE 5,7 25,9 0,0
21-07-2019 24,3     26,6     29,6 5,3 63 80 88 1.019 1.020 1.023 SSE 5,8 29,6 0,0
20-07-2019 23,1     26,0     28,5 5,4 61 79 87 1.015 1.017 1.019 SSE 5,3 24,1 0,0
19-07-2019 24,0     26,3     28,8 4,8 59 76 83 1.015 1.016 1.018 SSE 7,0 33,9 0,0
Últims 13 mesos disponibles
07/2019 21,3 23,9 26,4 27,0 27,1 30,6 39,2 17,9 43 70 82 1.006 1.015 1.022 SSE 6,3 56,3 0,2
06/2019 14,6 18,9 22,7 22,8 20,3 26,8 33,0 18,4 37 68 84 1.009 1.016 1.023 SSE 6,4 50,0 0,2
05/2019 11,2 15,6 23,2 19,2 17,9 23,5 31,8 20,6 47 68 82 1.006 1.016 1.025 SSE 6,2 56,3 9,0
04/2019 10,0 12,7 15,2 15,9 13,9 19,2 29,2 19,2 37 68 94 1.002 1.014 1.026 SSE 9,1 61,1 216,6
03/2019 8,3 10,8 15,9 15,3 12,1 19,4 28,3 20,0 30 60 90 1.012 1.024 1.031 S 5,8 64,8 35,8
02/2019 6,6 8,9 12,3 13,0 13,3 17,2 22,4 15,8 33 65 83 996 1.026 1.035 S 5,5 79,6 0,0
01/2019 4,2 8,9 14,2 12,7 11,6 16,7 20,9 16,7 40 57 84 1.003 1.020 1.032 SSO 7,4 80,6 1,2
12/2018 6,3 10,7 15,9 14,5 14,2 18,7 24,6 18,3 47 67 88 1.010 1.026 1.032 SSO 5,6 63,0 24,0
11/2018 8,3 13,1 17,2 16,0 16,3 19,1 22,4 14,1 43 68 95 1.002 1.016 1.025 SO 6,5 75,9 318,0
10/2018 9,1 16,2 21,2 19,3 15,4 22,7 29,4 20,3 42 71 90 1.001 1.015 1.026 S 6,0 61,1 153,6
09/2018 17,1 21,7 24,9 24,6 25,1 27,7 31,7 14,6 63 78 88 1.013 1.020 1.029 4,5 46,7 109,6
08/2018 22,3 24,5 27,7 27,4 26,2 30,4 35,2 12,9 53 72 86 1.013 1.017 1.021 5,5 53,7 127,8
07/2018 22,5 24,1 26,6 27,1 26,1 30,7 37,1 14,6 35 71 85 1.012 1.016 1.021 6,7 61,1 0,4
Tots els anys disponibles
2018 4,6 15,8 27,7 19,0 8,4 22,6 37,1 32,5 35 67 95 994 1.017 1.036 SSE 6,5 76,0 924,6
2017 1,4 16,3 26,9 19,8 9,6 23,3 39,0 37,6 33 68 93 1.002 1.017 1.038 SE 0,0 97,0 399,0
2016 4,8 16,0 25,6 19,4 12,4 22,8 39,6 34,8 29 66 93 993 1.017 1.036 93,0 543,9
Temperatura (°C)
Humitat relativa (%)
Velocitat del vent i ràfega màxima (km/h)
Direcció del vent (°)
Pressió (hPa)
Precipitació (mm)
Nota sobre les dades: s'avisa a l'usuari de la provisionalitat i no oficialitat d'aquestes dades
Logo AVAMET blanc
Web allotjada a Sollutia
Llicència de Creative CommonsLa web d'AVAMET i els seus continguts estan subjectes a una llicència de
Reconeixement - No Comercial - Compartir igual
Properes estacions: Altea - Club Nàutic d'Altea (Soci), Ares del Maestrat (Ajuntament Soci),      - - - - -      Últimes estacions: Catadau - Urb. Lloma Molina (Inforatge), Ontinyent - El Pilar (Soci) - - -